sensor_id;sensor_type;location;lat;lon;timestamp;temperature;humidity
23395;DHT22;11870;53.084;18.206;2023-05-17T00:00:56;11.40;99.90
23395;DHT22;11870;53.084;18.206;2023-05-17T00:03:22;11.30;99.90
23395;DHT22;11870;53.084;18.206;2023-05-17T00:05:48;11.30;99.90
23395;DHT22;11870;53.084;18.206;2023-05-17T00:08:14;11.40;99.90
23395;DHT22;11870;53.084;18.206;2023-05-17T00:10:40;11.30;99.90
23395;DHT22;11870;53.084;18.206;2023-05-17T00:13:06;11.90;99.90
23395;DHT22;11870;53.084;18.206;2023-05-17T00:15:32;13.30;99.90
23395;DHT22;11870;53.084;18.206;2023-05-17T00:17:58;11.30;99.90
23395;DHT22;11870;53.084;18.206;2023-05-17T00:20:24;12.00;99.90
23395;DHT22;11870;53.084;18.206;2023-05-17T00:22:50;11.30;99.90
23395;DHT22;11870;53.084;18.206;2023-05-17T00:25:16;11.30;99.90
23395;DHT22;11870;53.084;18.206;2023-05-17T00:27:42;14.50;99.90
23395;DHT22;11870;53.084;18.206;2023-05-17T00:30:08;12.60;99.90
23395;DHT22;11870;53.084;18.206;2023-05-17T00:32:34;11.20;99.90
23395;DHT22;11870;53.084;18.206;2023-05-17T00:35:00;11.70;99.90
23395;DHT22;11870;53.084;18.206;2023-05-17T00:37:26;11.20;99.90
23395;DHT22;11870;53.084;18.206;2023-05-17T00:39:52;11.20;99.90
23395;DHT22;11870;53.084;18.206;2023-05-17T00:42:18;12.80;99.90
23395;DHT22;11870;53.084;18.206;2023-05-17T00:44:44;12.40;99.90
23395;DHT22;11870;53.084;18.206;2023-05-17T00:47:10;13.00;99.90
23395;DHT22;11870;53.084;18.206;2023-05-17T00:49:37;11.00;99.90
23395;DHT22;11870;53.084;18.206;2023-05-17T00:52:03;11.10;99.90
23395;DHT22;11870;53.084;18.206;2023-05-17T00:54:30;11.00;99.90
23395;DHT22;11870;53.084;18.206;2023-05-17T00:56:56;14.30;99.90
23395;DHT22;11870;53.084;18.206;2023-05-17T00:59:22;11.00;99.90
23395;DHT22;11870;53.084;18.206;2023-05-17T01:01:49;11.00;99.90
23395;DHT22;11870;53.084;18.206;2023-05-17T01:04:16;11.00;99.90
23395;DHT22;11870;53.084;18.206;2023-05-17T01:14:54;10.90;99.90
23395;DHT22;11870;53.084;18.206;2023-05-17T01:20:34;10.80;99.90
23395;DHT22;11870;53.084;18.206;2023-05-17T01:28:33;10.80;99.90
23395;DHT22;11870;53.084;18.206;2023-05-17T01:31:02;10.80;99.90
23395;DHT22;11870;53.084;18.206;2023-05-17T01:33:28;10.80;99.90
23395;DHT22;11870;53.084;18.206;2023-05-17T01:35:55;14.10;99.90
23395;DHT22;11870;53.084;18.206;2023-05-17T01:38:21;12.40;99.90
23395;DHT22;11870;53.084;18.206;2023-05-17T01:40:58;10.80;99.90
23395;DHT22;11870;53.084;18.206;2023-05-17T01:46:36;11.50;99.90
23395;DHT22;11870;53.084;18.206;2023-05-17T01:49:28;12.50;99.90
23395;DHT22;11870;53.084;18.206;2023-05-17T01:52:02;10.70;99.90
23395;DHT22;11870;53.084;18.206;2023-05-17T01:54:37;10.70;99.90
23395;DHT22;11870;53.084;18.206;2023-05-17T01:57:05;10.70;99.90
23395;DHT22;11870;53.084;18.206;2023-05-17T01:59:34;10.70;99.90
23395;DHT22;11870;53.084;18.206;2023-05-17T02:02:03;10.70;99.90
23395;DHT22;11870;53.084;18.206;2023-05-17T02:04:34;10.70;99.90
23395;DHT22;11870;53.084;18.206;2023-05-17T02:07:04;11.70;99.90
23395;DHT22;11870;53.084;18.206;2023-05-17T02:09:29;11.90;99.90
23395;DHT22;11870;53.084;18.206;2023-05-17T02:11:56;10.50;99.90
23395;DHT22;11870;53.084;18.206;2023-05-17T02:14:22;10.50;99.90
23395;DHT22;11870;53.084;18.206;2023-05-17T02:16:48;10.60;99.90
23395;DHT22;11870;53.084;18.206;2023-05-17T02:19:13;14.00;99.90
23395;DHT22;11870;53.084;18.206;2023-05-17T02:21:40;10.60;99.90
23395;DHT22;11870;53.084;18.206;2023-05-17T02:24:06;11.40;99.90
23395;DHT22;11870;53.084;18.206;2023-05-17T02:26:32;10.50;99.90
23395;DHT22;11870;53.084;18.206;2023-05-17T02:28:58;12.00;99.90
23395;DHT22;11870;53.084;18.206;2023-05-17T02:31:24;11.70;99.90
23395;DHT22;11870;53.084;18.206;2023-05-17T02:33:54;10.60;99.90
23395;DHT22;11870;53.084;18.206;2023-05-17T02:36:20;10.50;99.90
23395;DHT22;11870;53.084;18.206;2023-05-17T02:38:46;10.50;99.90
23395;DHT22;11870;53.084;18.206;2023-05-17T02:41:12;10.50;99.90
23395;DHT22;11870;53.084;18.206;2023-05-17T02:43:38;10.50;99.90
23395;DHT22;11870;53.084;18.206;2023-05-17T02:46:04;10.40;99.90
23395;DHT22;11870;53.084;18.206;2023-05-17T02:48:30;10.40;99.90
23395;DHT22;11870;53.084;18.206;2023-05-17T02:53:22;10.40;99.90
23395;DHT22;11870;53.084;18.206;2023-05-17T02:55:49;10.40;99.90
23395;DHT22;11870;53.084;18.206;2023-05-17T02:58:15;10.40;99.90
23395;DHT22;11870;53.084;18.206;2023-05-17T03:00:44;10.40;99.90
23395;DHT22;11870;53.084;18.206;2023-05-17T03:03:11;11.30;99.90
23395;DHT22;11870;53.084;18.206;2023-05-17T03:05:37;11.00;99.90
23395;DHT22;11870;53.084;18.206;2023-05-17T03:08:02;10.20;99.90
23395;DHT22;11870;53.084;18.206;2023-05-17T03:10:29;12.70;99.90
23395;DHT22;11870;53.084;18.206;2023-05-17T03:12:54;10.30;99.90
23395;DHT22;11870;53.084;18.206;2023-05-17T03:15:20;10.30;99.90
23395;DHT22;11870;53.084;18.206;2023-05-17T03:17:46;10.30;99.90
23395;DHT22;11870;53.084;18.206;2023-05-17T03:20:12;10.30;99.90
23395;DHT22;11870;53.084;18.206;2023-05-17T03:22:38;10.30;99.90
23395;DHT22;11870;53.084;18.206;2023-05-17T03:25:05;10.40;99.90
23395;DHT22;11870;53.084;18.206;2023-05-17T03:27:31;10.30;99.90
23395;DHT22;11870;53.084;18.206;2023-05-17T03:29:57;10.30;99.90
23395;DHT22;11870;53.084;18.206;2023-05-17T03:32:23;10.30;99.90
23395;DHT22;11870;53.084;18.206;2023-05-17T03:34:49;10.30;99.90
23395;DHT22;11870;53.084;18.206;2023-05-17T03:37:15;12.40;99.90
23395;DHT22;11870;53.084;18.206;2023-05-17T03:39:41;12.30;99.90
23395;DHT22;11870;53.084;18.206;2023-05-17T03:42:06;11.00;99.90
23395;DHT22;11870;53.084;18.206;2023-05-17T03:44:32;13.00;99.90
23395;DHT22;11870;53.084;18.206;2023-05-17T03:46:58;10.80;99.90
23395;DHT22;11870;53.084;18.206;2023-05-17T03:49:24;10.40;99.90
23395;DHT22;11870;53.084;18.206;2023-05-17T03:51:51;11.10;99.90
23395;DHT22;11870;53.084;18.206;2023-05-17T03:54:17;11.80;99.90
23395;DHT22;11870;53.084;18.206;2023-05-17T03:56:42;10.60;99.90
23395;DHT22;11870;53.084;18.206;2023-05-17T03:59:12;10.70;99.90
23395;DHT22;11870;53.084;18.206;2023-05-17T04:01:38;12.00;99.90
23395;DHT22;11870;53.084;18.206;2023-05-17T04:04:05;10.70;99.90
23395;DHT22;11870;53.084;18.206;2023-05-17T04:06:31;10.80;99.90
23395;DHT22;11870;53.084;18.206;2023-05-17T04:08:57;12.10;99.90
23395;DHT22;11870;53.084;18.206;2023-05-17T04:11:25;10.90;99.90
23395;DHT22;11870;53.084;18.206;2023-05-17T04:13:53;12.40;99.90
23395;DHT22;11870;53.084;18.206;2023-05-17T04:16:19;11.20;99.90
23395;DHT22;11870;53.084;18.206;2023-05-17T04:18:45;11.20;99.90
23395;DHT22;11870;53.084;18.206;2023-05-17T04:21:11;11.40;99.90
23395;DHT22;11870;53.084;18.206;2023-05-17T04:23:38;14.20;99.90
23395;DHT22;11870;53.084;18.206;2023-05-17T04:26:04;11.70;99.90
23395;DHT22;11870;53.084;18.206;2023-05-17T04:28:31;11.90;99.90
23395;DHT22;11870;53.084;18.206;2023-05-17T04:30:59;12.00;99.90
23395;DHT22;11870;53.084;18.206;2023-05-17T04:33:25;12.10;99.90
23395;DHT22;11870;53.084;18.206;2023-05-17T04:35:55;14.50;99.90
23395;DHT22;11870;53.084;18.206;2023-05-17T04:38:22;14.90;99.90
23395;DHT22;11870;53.084;18.206;2023-05-17T04:40:50;12.60;99.90
23395;DHT22;11870;53.084;18.206;2023-05-17T04:43:17;13.50;99.90
23395;DHT22;11870;53.084;18.206;2023-05-17T04:45:42;14.70;99.90
23395;DHT22;11870;53.084;18.206;2023-05-17T04:48:09;13.00;99.90
23395;DHT22;11870;53.084;18.206;2023-05-17T04:50:35;13.50;99.90
23395;DHT22;11870;53.084;18.206;2023-05-17T04:53:01;13.80;99.90
23395;DHT22;11870;53.084;18.206;2023-05-17T04:55:27;13.90;99.90
23395;DHT22;11870;53.084;18.206;2023-05-17T04:57:53;13.60;99.90
23395;DHT22;11870;53.084;18.206;2023-05-17T05:00:19;14.80;99.90
23395;DHT22;11870;53.084;18.206;2023-05-17T05:02:47;13.90;99.90
23395;DHT22;11870;53.084;18.206;2023-05-17T05:05:13;14.30;99.90
23395;DHT22;11870;53.084;18.206;2023-05-17T05:07:39;16.90;99.90
23395;DHT22;11870;53.084;18.206;2023-05-17T05:10:06;15.30;99.90
23395;DHT22;11870;53.084;18.206;2023-05-17T05:12:32;14.80;99.90
23395;DHT22;11870;53.084;18.206;2023-05-17T05:14:58;16.20;99.90
23395;DHT22;11870;53.084;18.206;2023-05-17T05:17:24;15.00;99.90
23395;DHT22;11870;53.084;18.206;2023-05-17T05:19:50;15.30;99.90
23395;DHT22;11870;53.084;18.206;2023-05-17T05:22:17;15.30;99.90
23395;DHT22;11870;53.084;18.206;2023-05-17T05:24:42;15.90;99.90
23395;DHT22;11870;53.084;18.206;2023-05-17T05:27:09;15.40;99.90
23395;DHT22;11870;53.084;18.206;2023-05-17T05:29:34;15.50;99.90
23395;DHT22;11870;53.084;18.206;2023-05-17T05:32:01;15.40;99.90
23395;DHT22;11870;53.084;18.206;2023-05-17T05:34:27;15.60;99.90
23395;DHT22;11870;53.084;18.206;2023-05-17T05:36:54;15.80;99.80
23395;DHT22;11870;53.084;18.206;2023-05-17T05:39:20;16.00;98.30
23395;DHT22;11870;53.084;18.206;2023-05-17T05:41:46;16.30;96.30
23395;DHT22;11870;53.084;18.206;2023-05-17T05:44:12;16.60;94.70
23395;DHT22;11870;53.084;18.206;2023-05-17T05:46:38;16.90;93.10
23395;DHT22;11870;53.084;18.206;2023-05-17T05:49:04;18.00;91.60
23395;DHT22;11870;53.084;18.206;2023-05-17T05:51:30;17.90;87.50
23395;DHT22;11870;53.084;18.206;2023-05-17T05:53:56;20.40;84.60
23395;DHT22;11870;53.084;18.206;2023-05-17T05:56:24;19.10;76.70
23395;DHT22;11870;53.084;18.206;2023-05-17T05:58:54;19.90;72.40
23395;DHT22;11870;53.084;18.206;2023-05-17T06:01:20;20.90;67.40
23395;DHT22;11870;53.084;18.206;2023-05-17T06:03:46;21.80;59.50
23395;DHT22;11870;53.084;18.206;2023-05-17T06:06:13;21.60;56.60
23395;DHT22;11870;53.084;18.206;2023-05-17T06:08:41;22.10;54.60
23395;DHT22;11870;53.084;18.206;2023-05-17T06:11:08;22.70;51.50
23395;DHT22;11870;53.084;18.206;2023-05-17T06:13:34;23.10;49.50
23395;DHT22;11870;53.084;18.206;2023-05-17T06:16:00;23.60;47.30
23395;DHT22;11870;53.084;18.206;2023-05-17T06:18:26;24.10;46.40
23395;DHT22;11870;53.084;18.206;2023-05-17T06:20:52;24.90;45.00
23395;DHT22;11870;53.084;18.206;2023-05-17T06:23:18;25.80;41.40
23395;DHT22;11870;53.084;18.206;2023-05-17T06:25:44;26.30;40.60
23395;DHT22;11870;53.084;18.206;2023-05-17T06:28:10;26.70;37.70
23395;DHT22;11870;53.084;18.206;2023-05-17T06:30:36;27.20;36.20
23395;DHT22;11870;53.084;18.206;2023-05-17T06:33:02;27.70;34.90
23395;DHT22;11870;53.084;18.206;2023-05-17T06:35:29;28.30;33.80
23395;DHT22;11870;53.084;18.206;2023-05-17T06:37:55;29.00;32.30
23395;DHT22;11870;53.084;18.206;2023-05-17T06:40:21;29.30;31.40
23395;DHT22;11870;53.084;18.206;2023-05-17T06:42:47;29.70;30.30
23395;DHT22;11870;53.084;18.206;2023-05-17T06:45:13;29.70;29.40
23395;DHT22;11870;53.084;18.206;2023-05-17T06:47:39;29.50;28.90
23395;DHT22;11870;53.084;18.206;2023-05-17T06:50:05;29.50;29.90
23395;DHT22;11870;53.084;18.206;2023-05-17T06:52:31;29.70;28.60
23395;DHT22;11870;53.084;18.206;2023-05-17T06:54:58;29.70;28.70
23395;DHT22;11870;53.084;18.206;2023-05-17T06:57:23;29.80;28.00
23395;DHT22;11870;53.084;18.206;2023-05-17T06:59:50;30.30;28.80
23395;DHT22;11870;53.084;18.206;2023-05-17T07:02:17;30.70;27.10
23395;DHT22;11870;53.084;18.206;2023-05-17T07:04:44;30.80;26.80
23395;DHT22;11870;53.084;18.206;2023-05-17T07:07:10;30.80;26.80
23395;DHT22;11870;53.084;18.206;2023-05-17T07:09:36;31.10;26.50
23395;DHT22;11870;53.084;18.206;2023-05-17T07:12:03;31.10;26.00
23395;DHT22;11870;53.084;18.206;2023-05-17T07:14:30;31.40;26.20
23395;DHT22;11870;53.084;18.206;2023-05-17T07:16:56;31.70;25.30
23395;DHT22;11870;53.084;18.206;2023-05-17T07:19:22;32.30;25.40
23395;DHT22;11870;53.084;18.206;2023-05-17T07:21:48;32.70;25.10
23395;DHT22;11870;53.084;18.206;2023-05-17T07:24:15;32.50;24.50
23395;DHT22;11870;53.084;18.206;2023-05-17T07:26:41;32.30;24.20
23395;DHT22;11870;53.084;18.206;2023-05-17T07:29:07;32.60;24.10
23395;DHT22;11870;53.084;18.206;2023-05-17T07:31:33;33.30;23.90
23395;DHT22;11870;53.084;18.206;2023-05-17T07:33:59;33.60;23.20
23395;DHT22;11870;53.084;18.206;2023-05-17T07:36:25;33.60;23.40
23395;DHT22;11870;53.084;18.206;2023-05-17T07:38:56;34.20;22.50
23395;DHT22;11870;53.084;18.206;2023-05-17T07:41:22;34.00;22.00
23395;DHT22;11870;53.084;18.206;2023-05-17T07:43:48;34.10;22.80
23395;DHT22;11870;53.084;18.206;2023-05-17T07:46:15;34.50;22.30
23395;DHT22;11870;53.084;18.206;2023-05-17T07:48:41;34.70;21.80
23395;DHT22;11870;53.084;18.206;2023-05-17T07:51:07;35.10;21.60
23395;DHT22;11870;53.084;18.206;2023-05-17T07:53:33;35.70;21.30
23395;DHT22;11870;53.084;18.206;2023-05-17T07:55:58;35.90;20.30
23395;DHT22;11870;53.084;18.206;2023-05-17T07:58:25;35.40;19.60
23395;DHT22;11870;53.084;18.206;2023-05-17T08:00:50;35.40;20.10
23395;DHT22;11870;53.084;18.206;2023-05-17T08:03:16;34.60;20.20
23395;DHT22;11870;53.084;18.206;2023-05-17T08:05:42;33.50;20.40
23395;DHT22;11870;53.084;18.206;2023-05-17T08:08:08;32.40;21.80
23395;DHT22;11870;53.084;18.206;2023-05-17T08:10:34;31.90;22.70
23395;DHT22;11870;53.084;18.206;2023-05-17T08:13:05;31.60;22.50
23395;DHT22;11870;53.084;18.206;2023-05-17T08:15:30;31.40;23.10
23395;DHT22;11870;53.084;18.206;2023-05-17T08:17:56;32.00;23.10
23395;DHT22;11870;53.084;18.206;2023-05-17T08:20:22;32.50;22.60
23395;DHT22;11870;53.084;18.206;2023-05-17T08:22:48;32.70;21.90
23395;DHT22;11870;53.084;18.206;2023-05-17T08:25:14;32.50;21.60
23395;DHT22;11870;53.084;18.206;2023-05-17T08:27:40;31.80;22.80
23395;DHT22;11870;53.084;18.206;2023-05-17T08:30:06;31.60;23.40
23395;DHT22;11870;53.084;18.206;2023-05-17T08:32:32;30.80;24.20
23395;DHT22;11870;53.084;18.206;2023-05-17T08:34:58;30.70;23.90
23395;DHT22;11870;53.084;18.206;2023-05-17T08:37:24;31.00;24.40
23395;DHT22;11870;53.084;18.206;2023-05-17T08:39:50;30.60;23.40
23395;DHT22;11870;53.084;18.206;2023-05-17T08:42:22;30.40;24.40
23395;DHT22;11870;53.084;18.206;2023-05-17T08:44:52;29.80;25.20
23395;DHT22;11870;53.084;18.206;2023-05-17T08:47:20;30.00;24.70
23395;DHT22;11870;53.084;18.206;2023-05-17T08:49:54;29.90;24.80
23395;DHT22;11870;53.084;18.206;2023-05-17T08:52:22;30.00;24.60
23395;DHT22;11870;53.084;18.206;2023-05-17T08:54:48;30.10;24.70
23395;DHT22;11870;53.084;18.206;2023-05-17T08:57:15;30.30;24.40
23395;DHT22;11870;53.084;18.206;2023-05-17T08:59:43;30.00;24.60
23395;DHT22;11870;53.084;18.206;2023-05-17T09:02:12;29.40;24.80
23395;DHT22;11870;53.084;18.206;2023-05-17T09:04:39;28.90;25.20
23395;DHT22;11870;53.084;18.206;2023-05-17T09:07:05;28.50;25.60
23395;DHT22;11870;53.084;18.206;2023-05-17T09:09:32;27.90;26.80
23395;DHT22;11870;53.084;18.206;2023-05-17T09:11:59;27.30;28.40
23395;DHT22;11870;53.084;18.206;2023-05-17T09:14:34;27.20;27.90
23395;DHT22;11870;53.084;18.206;2023-05-17T09:17:00;26.60;28.10
23395;DHT22;11870;53.084;18.206;2023-05-17T09:19:26;26.20;28.30
23395;DHT22;11870;53.084;18.206;2023-05-17T09:21:53;25.90;28.90
23395;DHT22;11870;53.084;18.206;2023-05-17T09:24:29;25.80;28.60
23395;DHT22;11870;53.084;18.206;2023-05-17T09:27:02;25.10;29.30
23395;DHT22;11870;53.084;18.206;2023-05-17T09:29:32;24.50;30.80
23395;DHT22;11870;53.084;18.206;2023-05-17T09:32:15;24.20;30.70
23395;DHT22;11870;53.084;18.206;2023-05-17T09:34:42;23.50;31.60
23395;DHT22;11870;53.084;18.206;2023-05-17T09:37:18;23.40;32.30
23395;DHT22;11870;53.084;18.206;2023-05-17T09:39:46;22.90;33.40
23395;DHT22;11870;53.084;18.206;2023-05-17T09:42:13;22.70;34.20
23395;DHT22;11870;53.084;18.206;2023-05-17T09:44:52;22.80;34.80
23395;DHT22;11870;53.084;18.206;2023-05-17T09:47:24;22.60;34.60
23395;DHT22;11870;53.084;18.206;2023-05-17T09:49:51;22.30;34.20
23395;DHT22;11870;53.084;18.206;2023-05-17T09:52:19;22.60;35.70
23395;DHT22;11870;53.084;18.206;2023-05-17T09:54:52;23.00;35.20
23395;DHT22;11870;53.084;18.206;2023-05-17T09:57:19;22.90;33.70
23395;DHT22;11870;53.084;18.206;2023-05-17T09:59:46;23.00;33.80
23395;DHT22;11870;53.084;18.206;2023-05-17T10:02:21;23.30;33.50
23395;DHT22;11870;53.084;18.206;2023-05-17T10:04:48;23.50;33.10
23395;DHT22;11870;53.084;18.206;2023-05-17T10:07:18;23.10;33.20
23395;DHT22;11870;53.084;18.206;2023-05-17T10:09:46;22.50;34.30
23395;DHT22;11870;53.084;18.206;2023-05-17T10:12:21;22.10;35.50
23395;DHT22;11870;53.084;18.206;2023-05-17T10:14:53;22.10;36.30
23395;DHT22;11870;53.084;18.206;2023-05-17T10:17:20;21.70;36.80
23395;DHT22;11870;53.084;18.206;2023-05-17T10:19:48;21.70;37.50
23395;DHT22;11870;53.084;18.206;2023-05-17T10:22:15;21.80;37.80
23395;DHT22;11870;53.084;18.206;2023-05-17T10:24:42;21.70;37.60
23395;DHT22;11870;53.084;18.206;2023-05-17T10:27:12;21.80;38.30
23395;DHT22;11870;53.084;18.206;2023-05-17T10:29:38;21.70;37.20
23395;DHT22;11870;53.084;18.206;2023-05-17T10:32:05;21.90;37.00
23395;DHT22;11870;53.084;18.206;2023-05-17T10:34:38;21.90;36.10
23395;DHT22;11870;53.084;18.206;2023-05-17T10:37:05;22.00;35.70
23395;DHT22;11870;53.084;18.206;2023-05-17T10:39:32;22.40;35.40
23395;DHT22;11870;53.084;18.206;2023-05-17T10:42:06;22.40;34.50
23395;DHT22;11870;53.084;18.206;2023-05-17T10:44:33;22.70;34.50
23395;DHT22;11870;53.084;18.206;2023-05-17T10:47:00;22.60;34.30
23395;DHT22;11870;53.084;18.206;2023-05-17T10:49:36;22.50;34.70
23395;DHT22;11870;53.084;18.206;2023-05-17T10:52:14;22.00;35.90
23395;DHT22;11870;53.084;18.206;2023-05-17T10:54:42;21.80;36.40
23395;DHT22;11870;53.084;18.206;2023-05-17T10:57:21;21.60;36.80
23395;DHT22;11870;53.084;18.206;2023-05-17T11:00:01;21.70;36.70
23395;DHT22;11870;53.084;18.206;2023-05-17T11:02:30;21.70;36.50
23395;DHT22;11870;53.084;18.206;2023-05-17T11:04:56;21.50;36.80
23395;DHT22;11870;53.084;18.206;2023-05-17T11:07:29;21.50;37.20
23395;DHT22;11870;53.084;18.206;2023-05-17T11:12:39;21.30;36.20
23395;DHT22;11870;53.084;18.206;2023-05-17T11:15:09;21.80;37.00
23395;DHT22;11870;53.084;18.206;2023-05-17T11:17:46;21.60;36.20
23395;DHT22;11870;53.084;18.206;2023-05-17T11:23:01;21.60;35.50
23395;DHT22;11870;53.084;18.206;2023-05-17T11:25:29;21.30;35.70
23395;DHT22;11870;53.084;18.206;2023-05-17T11:27:57;21.20;36.20
23395;DHT22;11870;53.084;18.206;2023-05-17T11:32:53;21.00;36.90
23395;DHT22;11870;53.084;18.206;2023-05-17T11:35:23;21.10;37.50
23395;DHT22;11870;53.084;18.206;2023-05-17T11:38:22;21.20;36.90
23395;DHT22;11870;53.084;18.206;2023-05-17T11:40:54;21.30;34.80
23395;DHT22;11870;53.084;18.206;2023-05-17T11:43:24;21.60;36.00
23395;DHT22;11870;53.084;18.206;2023-05-17T11:48:23;21.60;33.90
23395;DHT22;11870;53.084;18.206;2023-05-17T11:50:51;21.60;34.00
23395;DHT22;11870;53.084;18.206;2023-05-17T11:53:18;21.60;34.70
23395;DHT22;11870;53.084;18.206;2023-05-17T11:55:48;21.40;34.70
23395;DHT22;11870;53.084;18.206;2023-05-17T11:58:23;21.40;35.10
23395;DHT22;11870;53.084;18.206;2023-05-17T12:00:54;21.40;34.50
23395;DHT22;11870;53.084;18.206;2023-05-17T12:08:27;21.50;34.00
23395;DHT22;11870;53.084;18.206;2023-05-17T12:10:53;21.40;34.00
23395;DHT22;11870;53.084;18.206;2023-05-17T12:13:22;21.60;35.40
23395;DHT22;11870;53.084;18.206;2023-05-17T12:15:54;21.70;35.00
23395;DHT22;11870;53.084;18.206;2023-05-17T12:18:21;21.90;33.60
23395;DHT22;11870;53.084;18.206;2023-05-17T12:20:58;22.00;33.50
23395;DHT22;11870;53.084;18.206;2023-05-17T12:23:33;22.20;32.90
23395;DHT22;11870;53.084;18.206;2023-05-17T12:26:07;22.10;32.80
23395;DHT22;11870;53.084;18.206;2023-05-17T12:28:35;22.00;33.40
23395;DHT22;11870;53.084;18.206;2023-05-17T12:31:02;21.90;32.60
23395;DHT22;11870;53.084;18.206;2023-05-17T12:33:30;21.80;33.00
23395;DHT22;11870;53.084;18.206;2023-05-17T12:35:57;21.90;32.90
23395;DHT22;11870;53.084;18.206;2023-05-17T12:38:24;21.70;31.90
23395;DHT22;11870;53.084;18.206;2023-05-17T12:40:53;21.10;32.70
23395;DHT22;11870;53.084;18.206;2023-05-17T12:43:22;20.90;34.20
23395;DHT22;11870;53.084;18.206;2023-05-17T12:45:49;21.00;34.20
23395;DHT22;11870;53.084;18.206;2023-05-17T12:48:15;21.00;34.70
23395;DHT22;11870;53.084;18.206;2023-05-17T12:50:41;21.10;33.40
23395;DHT22;11870;53.084;18.206;2023-05-17T12:53:11;21.10;33.20
23395;DHT22;11870;53.084;18.206;2023-05-17T12:55:37;21.10;33.30
23395;DHT22;11870;53.084;18.206;2023-05-17T12:58:03;21.10;34.20
23395;DHT22;11870;53.084;18.206;2023-05-17T13:00:37;20.90;33.60
23395;DHT22;11870;53.084;18.206;2023-05-17T13:03:19;20.80;33.30
23395;DHT22;11870;53.084;18.206;2023-05-17T13:06:02;20.90;34.50
23395;DHT22;11870;53.084;18.206;2023-05-17T13:08:28;22.10;35.30
23395;DHT22;11870;53.084;18.206;2023-05-17T13:11:05;20.80;34.90
23395;DHT22;11870;53.084;18.206;2023-05-17T13:13:32;20.60;33.30
23395;DHT22;11870;53.084;18.206;2023-05-17T13:15:58;22.90;35.00
23395;DHT22;11870;53.084;18.206;2023-05-17T13:18:24;20.30;34.90
23395;DHT22;11870;53.084;18.206;2023-05-17T13:20:50;20.10;34.10
23395;DHT22;11870;53.084;18.206;2023-05-17T13:23:16;20.20;34.30
23395;DHT22;11870;53.084;18.206;2023-05-17T13:25:42;20.10;34.30
23395;DHT22;11870;53.084;18.206;2023-05-17T13:28:08;20.80;33.80
23395;DHT22;11870;53.084;18.206;2023-05-17T13:30:34;19.80;33.40
23395;DHT22;11870;53.084;18.206;2023-05-17T13:33:00;19.90;34.60
23395;DHT22;11870;53.084;18.206;2023-05-17T13:35:26;19.70;34.30
23395;DHT22;11870;53.084;18.206;2023-05-17T13:37:52;20.60;33.40
23395;DHT22;11870;53.084;18.206;2023-05-17T13:40:18;19.50;33.10
23395;DHT22;11870;53.084;18.206;2023-05-17T13:42:44;19.50;32.90
23395;DHT22;11870;53.084;18.206;2023-05-17T13:45:10;19.60;33.40
23395;DHT22;11870;53.084;18.206;2023-05-17T13:47:38;19.70;33.60
23395;DHT22;11870;53.084;18.206;2023-05-17T13:50:04;19.80;32.50
23395;DHT22;11870;53.084;18.206;2023-05-17T13:52:31;19.80;32.80
23395;DHT22;11870;53.084;18.206;2023-05-17T13:54:56;19.80;33.00
23395;DHT22;11870;53.084;18.206;2023-05-17T13:57:22;19.70;33.30
23395;DHT22;11870;53.084;18.206;2023-05-17T13:59:48;19.60;34.30
23395;DHT22;11870;53.084;18.206;2023-05-17T14:02:14;19.70;33.70
23395;DHT22;11870;53.084;18.206;2023-05-17T14:04:40;19.50;33.00
23395;DHT22;11870;53.084;18.206;2023-05-17T14:07:06;19.30;33.30
23395;DHT22;11870;53.084;18.206;2023-05-17T14:09:32;19.90;34.10
23395;DHT22;11870;53.084;18.206;2023-05-17T14:12:00;19.20;34.00
23395;DHT22;11870;53.084;18.206;2023-05-17T14:14:26;19.00;34.10
23395;DHT22;11870;53.084;18.206;2023-05-17T14:16:54;19.00;34.20
23395;DHT22;11870;53.084;18.206;2023-05-17T14:19:20;20.20;35.50
23395;DHT22;11870;53.084;18.206;2023-05-17T14:21:46;19.10;35.60
23395;DHT22;11870;53.084;18.206;2023-05-17T14:24:12;18.90;35.90
23395;DHT22;11870;53.084;18.206;2023-05-17T14:26:38;18.30;35.90
23395;DHT22;11870;53.084;18.206;2023-05-17T14:29:04;18.20;36.10
23395;DHT22;11870;53.084;18.206;2023-05-17T14:31:31;18.00;37.00
23395;DHT22;11870;53.084;18.206;2023-05-17T14:33:57;18.50;37.00
23395;DHT22;11870;53.084;18.206;2023-05-17T14:36:26;18.10;37.00
23395;DHT22;11870;53.084;18.206;2023-05-17T14:38:52;18.20;37.40
23395;DHT22;11870;53.084;18.206;2023-05-17T14:41:18;18.20;37.50
23395;DHT22;11870;53.084;18.206;2023-05-17T14:43:44;18.00;37.00
23395;DHT22;11870;53.084;18.206;2023-05-17T14:46:10;17.90;37.30
23395;DHT22;11870;53.084;18.206;2023-05-17T14:48:36;17.80;36.90
23395;DHT22;11870;53.084;18.206;2023-05-17T14:51:02;17.50;37.50
23395;DHT22;11870;53.084;18.206;2023-05-17T14:53:28;17.50;38.20
23395;DHT22;11870;53.084;18.206;2023-05-17T14:55:57;18.10;38.30
23395;DHT22;11870;53.084;18.206;2023-05-17T14:58:24;17.40;38.10
23395;DHT22;11870;53.084;18.206;2023-05-17T15:00:53;17.40;37.40
23395;DHT22;11870;53.084;18.206;2023-05-17T15:03:19;19.20;38.20
23395;DHT22;11870;53.084;18.206;2023-05-17T15:05:45;17.30;38.80
23395;DHT22;11870;53.084;18.206;2023-05-17T15:08:17;17.00;38.80
23395;DHT22;11870;53.084;18.206;2023-05-17T15:10:43;16.80;39.90
23395;DHT22;11870;53.084;18.206;2023-05-17T15:13:09;16.70;40.60
23395;DHT22;11870;53.084;18.206;2023-05-17T15:15:35;16.90;40.70
23395;DHT22;11870;53.084;18.206;2023-05-17T15:18:01;17.80;41.30
23395;DHT22;11870;53.084;18.206;2023-05-17T15:20:27;17.80;41.50
23395;DHT22;11870;53.084;18.206;2023-05-17T15:22:53;16.70;40.60
23395;DHT22;11870;53.084;18.206;2023-05-17T15:25:20;16.70;40.50
23395;DHT22;11870;53.084;18.206;2023-05-17T15:27:46;16.50;41.40
23395;DHT22;11870;53.084;18.206;2023-05-17T15:30:14;16.50;41.30
23395;DHT22;11870;53.084;18.206;2023-05-17T15:32:40;16.50;40.60
23395;DHT22;11870;53.084;18.206;2023-05-17T15:35:07;16.40;40.20
23395;DHT22;11870;53.084;18.206;2023-05-17T15:37:33;16.30;40.90
23395;DHT22;11870;53.084;18.206;2023-05-17T15:40:07;17.50;41.20
23395;DHT22;11870;53.084;18.206;2023-05-17T15:42:34;16.20;40.10
23395;DHT22;11870;53.084;18.206;2023-05-17T15:45:00;17.00;40.60
23395;DHT22;11870;53.084;18.206;2023-05-17T15:47:26;16.30;40.40
23395;DHT22;11870;53.084;18.206;2023-05-17T15:49:52;16.10;41.10
23395;DHT22;11870;53.084;18.206;2023-05-17T15:52:18;18.40;41.90
23395;DHT22;11870;53.084;18.206;2023-05-17T15:54:44;15.90;41.60